sensor_id;sensor_type;location;lat;lon;timestamp;P1;durP1;ratioP1;P2;durP2;ratioP2
41799;SDS011;27468;47.460;19.034;2023-03-23T00:01:53;20.00;;;11.60;;
41799;SDS011;27468;47.460;19.034;2023-03-23T00:04:18;25.73;;;12.10;;
41799;SDS011;27468;47.460;19.034;2023-03-23T00:06:44;16.65;;;10.57;;
41799;SDS011;27468;47.460;19.034;2023-03-23T00:09:13;19.67;;;11.98;;
41799;SDS011;27468;47.460;19.034;2023-03-23T00:11:40;22.10;;;11.70;;
41799;SDS011;27468;47.460;19.034;2023-03-23T00:14:06;18.75;;;11.15;;
41799;SDS011;27468;47.460;19.034;2023-03-23T00:16:38;18.52;;;10.80;;
41799;SDS011;27468;47.460;19.034;2023-03-23T00:19:06;19.75;;;11.95;;
41799;SDS011;27468;47.460;19.034;2023-03-23T00:21:35;22.13;;;11.77;;
41799;SDS011;27468;47.460;19.034;2023-03-23T00:26:32;19.33;;;10.85;;
41799;SDS011;27468;47.460;19.034;2023-03-23T00:28:59;19.23;;;10.80;;
41799;SDS011;27468;47.460;19.034;2023-03-23T00:31:26;20.88;;;11.25;;
41799;SDS011;27468;47.460;19.034;2023-03-23T00:34:01;20.77;;;11.75;;
41799;SDS011;27468;47.460;19.034;2023-03-23T00:36:29;20.92;;;11.57;;
41799;SDS011;27468;47.460;19.034;2023-03-23T00:38:56;17.85;;;11.25;;
41799;SDS011;27468;47.460;19.034;2023-03-23T00:41:23;19.73;;;11.00;;
41799;SDS011;27468;47.460;19.034;2023-03-23T00:43:52;24.90;;;11.68;;
41799;SDS011;27468;47.460;19.034;2023-03-23T00:46:18;18.13;;;11.35;;
41799;SDS011;27468;47.460;19.034;2023-03-23T00:48:45;20.33;;;11.77;;
41799;SDS011;27468;47.460;19.034;2023-03-23T00:51:11;19.23;;;10.73;;
41799;SDS011;27468;47.460;19.034;2023-03-23T00:53:38;18.52;;;10.73;;
41799;SDS011;27468;47.460;19.034;2023-03-23T00:56:04;21.35;;;11.25;;
41799;SDS011;27468;47.460;19.034;2023-03-23T00:58:30;20.35;;;11.20;;
41799;SDS011;27468;47.460;19.034;2023-03-23T01:00:55;20.20;;;11.65;;
41799;SDS011;27468;47.460;19.034;2023-03-23T01:03:21;18.10;;;10.90;;
41799;SDS011;27468;47.460;19.034;2023-03-23T01:05:50;17.38;;;10.60;;
41799;SDS011;27468;47.460;19.034;2023-03-23T01:08:16;22.15;;;12.02;;
41799;SDS011;27468;47.460;19.034;2023-03-23T01:10:43;20.63;;;11.45;;
41799;SDS011;27468;47.460;19.034;2023-03-23T01:13:09;21.65;;;11.77;;
41799;SDS011;27468;47.460;19.034;2023-03-23T01:15:35;18.85;;;10.90;;
41799;SDS011;27468;47.460;19.034;2023-03-23T01:18:01;20.90;;;11.38;;
41799;SDS011;27468;47.460;19.034;2023-03-23T01:20:27;19.17;;;11.63;;
41799;SDS011;27468;47.460;19.034;2023-03-23T01:22:54;22.85;;;11.93;;
41799;SDS011;27468;47.460;19.034;2023-03-23T01:25:25;21.00;;;11.15;;
41799;SDS011;27468;47.460;19.034;2023-03-23T01:27:55;22.08;;;11.65;;
41799;SDS011;27468;47.460;19.034;2023-03-23T01:30:21;19.50;;;11.05;;
41799;SDS011;27468;47.460;19.034;2023-03-23T01:32:47;23.15;;;11.75;;
41799;SDS011;27468;47.460;19.034;2023-03-23T01:35:12;18.05;;;10.77;;
41799;SDS011;27468;47.460;19.034;2023-03-23T01:37:38;21.00;;;10.88;;
41799;SDS011;27468;47.460;19.034;2023-03-23T01:40:04;18.98;;;11.90;;
41799;SDS011;27468;47.460;19.034;2023-03-23T01:42:32;17.50;;;10.68;;
41799;SDS011;27468;47.460;19.034;2023-03-23T01:47:46;18.58;;;10.13;;
41799;SDS011;27468;47.460;19.034;2023-03-23T01:50:14;18.85;;;10.23;;
41799;SDS011;27468;47.460;19.034;2023-03-23T01:52:40;17.92;;;9.98;;
41799;SDS011;27468;47.460;19.034;2023-03-23T01:55:06;19.02;;;10.55;;
41799;SDS011;27468;47.460;19.034;2023-03-23T01:57:32;19.27;;;11.02;;
41799;SDS011;27468;47.460;19.034;2023-03-23T02:00:00;17.65;;;9.77;;
41799;SDS011;27468;47.460;19.034;2023-03-23T02:02:41;16.67;;;10.10;;
41799;SDS011;27468;47.460;19.034;2023-03-23T02:05:18;19.20;;;9.85;;
41799;SDS011;27468;47.460;19.034;2023-03-23T02:07:59;19.27;;;11.13;;
41799;SDS011;27468;47.460;19.034;2023-03-23T02:10:28;16.52;;;10.27;;
41799;SDS011;27468;47.460;19.034;2023-03-23T02:12:55;16.85;;;10.23;;
41799;SDS011;27468;47.460;19.034;2023-03-23T02:15:21;15.60;;;9.07;;
41799;SDS011;27468;47.460;19.034;2023-03-23T02:17:54;15.10;;;9.73;;
41799;SDS011;27468;47.460;19.034;2023-03-23T02:23:19;16.60;;;9.65;;
41799;SDS011;27468;47.460;19.034;2023-03-23T02:28:54;15.73;;;9.32;;
41799;SDS011;27468;47.460;19.034;2023-03-23T02:31:29;14.75;;;8.93;;
41799;SDS011;27468;47.460;19.034;2023-03-23T02:34:16;18.17;;;9.02;;
41799;SDS011;27468;47.460;19.034;2023-03-23T02:37:01;17.13;;;9.48;;
41799;SDS011;27468;47.460;19.034;2023-03-23T02:39:32;14.98;;;8.48;;
41799;SDS011;27468;47.460;19.034;2023-03-23T02:42:05;17.50;;;10.00;;
41799;SDS011;27468;47.460;19.034;2023-03-23T02:44:34;16.98;;;9.68;;
41799;SDS011;27468;47.460;19.034;2023-03-23T02:47:04;18.85;;;9.75;;
41799;SDS011;27468;47.460;19.034;2023-03-23T02:49:32;15.02;;;9.25;;
41799;SDS011;27468;47.460;19.034;2023-03-23T02:52:02;19.45;;;9.65;;
41799;SDS011;27468;47.460;19.034;2023-03-23T02:54:32;18.10;;;9.43;;
41799;SDS011;27468;47.460;19.034;2023-03-23T02:56:59;15.77;;;9.35;;
41799;SDS011;27468;47.460;19.034;2023-03-23T02:59:26;17.85;;;9.73;;
41799;SDS011;27468;47.460;19.034;2023-03-23T03:02:04;17.50;;;9.95;;
41799;SDS011;27468;47.460;19.034;2023-03-23T03:04:31;18.10;;;9.75;;
41799;SDS011;27468;47.460;19.034;2023-03-23T03:07:07;19.25;;;10.30;;
41799;SDS011;27468;47.460;19.034;2023-03-23T03:10:32;18.38;;;10.32;;
41799;SDS011;27468;47.460;19.034;2023-03-23T03:18:19;17.40;;;9.35;;
41799;SDS011;27468;47.460;19.034;2023-03-23T03:20:51;15.18;;;8.75;;
41799;SDS011;27468;47.460;19.034;2023-03-23T03:23:23;20.67;;;9.88;;
41799;SDS011;27468;47.460;19.034;2023-03-23T03:25:51;16.33;;;9.48;;
41799;SDS011;27468;47.460;19.034;2023-03-23T03:28:22;19.75;;;9.13;;
41799;SDS011;27468;47.460;19.034;2023-03-23T03:30:50;16.05;;;8.75;;
41799;SDS011;27468;47.460;19.034;2023-03-23T03:33:19;17.63;;;8.18;;
41799;SDS011;27468;47.460;19.034;2023-03-23T03:35:50;15.07;;;9.07;;
41799;SDS011;27468;47.460;19.034;2023-03-23T03:38:17;15.52;;;8.43;;
41799;SDS011;27468;47.460;19.034;2023-03-23T03:40:42;17.35;;;8.60;;
41799;SDS011;27468;47.460;19.034;2023-03-23T03:43:08;16.38;;;8.63;;
41799;SDS011;27468;47.460;19.034;2023-03-23T03:45:33;14.60;;;8.27;;
41799;SDS011;27468;47.460;19.034;2023-03-23T03:47:59;15.43;;;8.50;;
41799;SDS011;27468;47.460;19.034;2023-03-23T03:50:25;18.65;;;9.00;;
41799;SDS011;27468;47.460;19.034;2023-03-23T03:52:51;15.90;;;8.20;;
41799;SDS011;27468;47.460;19.034;2023-03-23T03:55:17;17.98;;;9.00;;
41799;SDS011;27468;47.460;19.034;2023-03-23T03:57:43;17.85;;;8.88;;
41799;SDS011;27468;47.460;19.034;2023-03-23T04:00:08;16.02;;;8.95;;
41799;SDS011;27468;47.460;19.034;2023-03-23T04:02:41;17.15;;;9.00;;
41799;SDS011;27468;47.460;19.034;2023-03-23T04:05:08;16.00;;;8.75;;
41799;SDS011;27468;47.460;19.034;2023-03-23T04:07:35;18.35;;;9.20;;
41799;SDS011;27468;47.460;19.034;2023-03-23T04:10:07;16.58;;;9.70;;
41799;SDS011;27468;47.460;19.034;2023-03-23T04:12:33;18.67;;;9.10;;
41799;SDS011;27468;47.460;19.034;2023-03-23T04:14:59;19.00;;;10.23;;
41799;SDS011;27468;47.460;19.034;2023-03-23T04:17:25;19.42;;;9.32;;
41799;SDS011;27468;47.460;19.034;2023-03-23T04:19:53;18.83;;;9.98;;
41799;SDS011;27468;47.460;19.034;2023-03-23T04:22:24;18.58;;;9.80;;
41799;SDS011;27468;47.460;19.034;2023-03-23T04:24:56;15.82;;;8.52;;
41799;SDS011;27468;47.460;19.034;2023-03-23T04:27:24;19.13;;;9.50;;
41799;SDS011;27468;47.460;19.034;2023-03-23T04:29:50;15.55;;;9.10;;
41799;SDS011;27468;47.460;19.034;2023-03-23T04:32:15;16.60;;;9.27;;
41799;SDS011;27468;47.460;19.034;2023-03-23T04:34:43;18.80;;;9.30;;
41799;SDS011;27468;47.460;19.034;2023-03-23T04:37:09;15.50;;;8.82;;
41799;SDS011;27468;47.460;19.034;2023-03-23T04:39:34;17.58;;;9.77;;
41799;SDS011;27468;47.460;19.034;2023-03-23T04:42:00;17.95;;;9.63;;
41799;SDS011;27468;47.460;19.034;2023-03-23T04:44:26;16.25;;;9.20;;
41799;SDS011;27468;47.460;19.034;2023-03-23T04:46:52;15.70;;;9.07;;
41799;SDS011;27468;47.460;19.034;2023-03-23T04:49:19;17.52;;;9.27;;
41799;SDS011;27468;47.460;19.034;2023-03-23T04:51:46;17.92;;;8.52;;
41799;SDS011;27468;47.460;19.034;2023-03-23T04:54:12;19.17;;;9.55;;
41799;SDS011;27468;47.460;19.034;2023-03-23T04:56:37;21.65;;;10.57;;
41799;SDS011;27468;47.460;19.034;2023-03-23T04:59:03;21.83;;;10.30;;
41799;SDS011;27468;47.460;19.034;2023-03-23T05:01:28;18.38;;;10.75;;
41799;SDS011;27468;47.460;19.034;2023-03-23T05:03:54;19.20;;;10.23;;
41799;SDS011;27468;47.460;19.034;2023-03-23T05:06:22;18.88;;;10.05;;
41799;SDS011;27468;47.460;19.034;2023-03-23T05:08:48;19.20;;;11.05;;
41799;SDS011;27468;47.460;19.034;2023-03-23T05:11:13;18.15;;;10.00;;
41799;SDS011;27468;47.460;19.034;2023-03-23T05:13:38;18.98;;;9.38;;
41799;SDS011;27468;47.460;19.034;2023-03-23T05:16:04;19.25;;;9.55;;
41799;SDS011;27468;47.460;19.034;2023-03-23T05:18:31;17.30;;;9.45;;
41799;SDS011;27468;47.460;19.034;2023-03-23T05:21:01;15.82;;;8.57;;
41799;SDS011;27468;47.460;19.034;2023-03-23T05:23:27;17.88;;;9.55;;
41799;SDS011;27468;47.460;19.034;2023-03-23T05:25:56;19.10;;;9.38;;
41799;SDS011;27468;47.460;19.034;2023-03-23T05:28:25;17.42;;;10.52;;
41799;SDS011;27468;47.460;19.034;2023-03-23T05:30:52;17.23;;;9.18;;
41799;SDS011;27468;47.460;19.034;2023-03-23T05:33:18;19.15;;;9.77;;
41799;SDS011;27468;47.460;19.034;2023-03-23T05:35:45;17.48;;;9.60;;
41799;SDS011;27468;47.460;19.034;2023-03-23T05:38:12;18.60;;;9.80;;
41799;SDS011;27468;47.460;19.034;2023-03-23T05:40:39;19.25;;;9.85;;
41799;SDS011;27468;47.460;19.034;2023-03-23T05:43:06;17.48;;;9.40;;
41799;SDS011;27468;47.460;19.034;2023-03-23T05:45:32;19.30;;;10.18;;
41799;SDS011;27468;47.460;19.034;2023-03-23T05:47:58;17.10;;;10.20;;
41799;SDS011;27468;47.460;19.034;2023-03-23T05:50:24;18.35;;;9.90;;
41799;SDS011;27468;47.460;19.034;2023-03-23T05:52:51;20.42;;;10.75;;
41799;SDS011;27468;47.460;19.034;2023-03-23T05:55:16;17.52;;;10.57;;
41799;SDS011;27468;47.460;19.034;2023-03-23T05:57:42;20.60;;;10.77;;
41799;SDS011;27468;47.460;19.034;2023-03-23T06:00:08;21.75;;;10.68;;
41799;SDS011;27468;47.460;19.034;2023-03-23T06:02:38;20.70;;;11.32;;
41799;SDS011;27468;47.460;19.034;2023-03-23T06:05:04;21.42;;;11.10;;
41799;SDS011;27468;47.460;19.034;2023-03-23T06:07:30;21.98;;;11.85;;
41799;SDS011;27468;47.460;19.034;2023-03-23T06:09:56;24.70;;;12.38;;
41799;SDS011;27468;47.460;19.034;2023-03-23T06:12:21;24.80;;;12.50;;
41799;SDS011;27468;47.460;19.034;2023-03-23T06:14:47;23.05;;;13.48;;
41799;SDS011;27468;47.460;19.034;2023-03-23T06:17:13;22.65;;;12.65;;
41799;SDS011;27468;47.460;19.034;2023-03-23T06:19:42;22.30;;;12.43;;
41799;SDS011;27468;47.460;19.034;2023-03-23T06:22:09;22.70;;;12.57;;
41799;SDS011;27468;47.460;19.034;2023-03-23T06:24:34;22.00;;;12.13;;
41799;SDS011;27468;47.460;19.034;2023-03-23T06:27:00;24.02;;;12.73;;
41799;SDS011;27468;47.460;19.034;2023-03-23T06:29:26;23.63;;;13.95;;
41799;SDS011;27468;47.460;19.034;2023-03-23T06:31:53;21.92;;;12.70;;
41799;SDS011;27468;47.460;19.034;2023-03-23T06:34:21;24.58;;;13.07;;
41799;SDS011;27468;47.460;19.034;2023-03-23T06:36:48;21.63;;;12.55;;
41799;SDS011;27468;47.460;19.034;2023-03-23T06:39:13;20.95;;;12.40;;
41799;SDS011;27468;47.460;19.034;2023-03-23T06:41:39;24.55;;;13.82;;
41799;SDS011;27468;47.460;19.034;2023-03-23T06:44:05;21.95;;;12.90;;
41799;SDS011;27468;47.460;19.034;2023-03-23T06:46:31;22.65;;;12.85;;
41799;SDS011;27468;47.460;19.034;2023-03-23T06:48:57;20.60;;;13.20;;
41799;SDS011;27468;47.460;19.034;2023-03-23T06:51:23;19.67;;;12.43;;
41799;SDS011;27468;47.460;19.034;2023-03-23T06:53:48;22.48;;;14.07;;
41799;SDS011;27468;47.460;19.034;2023-03-23T06:56:14;21.58;;;13.18;;
41799;SDS011;27468;47.460;19.034;2023-03-23T06:58:39;19.58;;;12.57;;
41799;SDS011;27468;47.460;19.034;2023-03-23T07:01:06;22.05;;;13.52;;
41799;SDS011;27468;47.460;19.034;2023-03-23T07:03:34;23.92;;;14.27;;
41799;SDS011;27468;47.460;19.034;2023-03-23T07:06:00;22.63;;;13.80;;
41799;SDS011;27468;47.460;19.034;2023-03-23T07:08:25;23.95;;;13.60;;
41799;SDS011;27468;47.460;19.034;2023-03-23T07:10:54;20.75;;;13.07;;
41799;SDS011;27468;47.460;19.034;2023-03-23T07:13:21;25.05;;;13.60;;
41799;SDS011;27468;47.460;19.034;2023-03-23T07:15:47;24.33;;;13.45;;
41799;SDS011;27468;47.460;19.034;2023-03-23T07:18:13;23.85;;;13.45;;
41799;SDS011;27468;47.460;19.034;2023-03-23T07:20:39;21.67;;;14.23;;
41799;SDS011;27468;47.460;19.034;2023-03-23T07:23:05;23.63;;;12.88;;
41799;SDS011;27468;47.460;19.034;2023-03-23T07:25:39;24.45;;;13.27;;
41799;SDS011;27468;47.460;19.034;2023-03-23T07:28:12;19.08;;;12.75;;
41799;SDS011;27468;47.460;19.034;2023-03-23T07:30:38;18.70;;;12.98;;
41799;SDS011;27468;47.460;19.034;2023-03-23T07:33:05;26.05;;;14.70;;
41799;SDS011;27468;47.460;19.034;2023-03-23T07:35:31;23.88;;;14.25;;
41799;SDS011;27468;47.460;19.034;2023-03-23T07:37:57;25.20;;;14.80;;
41799;SDS011;27468;47.460;19.034;2023-03-23T07:40:23;22.75;;;13.77;;
41799;SDS011;27468;47.460;19.034;2023-03-23T07:42:56;22.05;;;13.68;;
41799;SDS011;27468;47.460;19.034;2023-03-23T07:45:22;22.58;;;13.60;;
41799;SDS011;27468;47.460;19.034;2023-03-23T07:47:48;23.65;;;14.38;;
41799;SDS011;27468;47.460;19.034;2023-03-23T07:50:14;21.65;;;14.30;;
41799;SDS011;27468;47.460;19.034;2023-03-23T07:52:39;21.25;;;13.40;;
41799;SDS011;27468;47.460;19.034;2023-03-23T07:55:06;18.73;;;12.68;;
41799;SDS011;27468;47.460;19.034;2023-03-23T07:57:34;21.85;;;14.00;;
41799;SDS011;27468;47.460;19.034;2023-03-23T07:59:59;20.27;;;13.20;;
41799;SDS011;27468;47.460;19.034;2023-03-23T08:02:25;22.30;;;13.40;;
41799;SDS011;27468;47.460;19.034;2023-03-23T08:04:51;21.42;;;14.30;;
41799;SDS011;27468;47.460;19.034;2023-03-23T08:07:18;27.30;;;15.35;;
41799;SDS011;27468;47.460;19.034;2023-03-23T08:09:45;24.92;;;14.68;;
41799;SDS011;27468;47.460;19.034;2023-03-23T08:12:12;24.08;;;13.95;;
41799;SDS011;27468;47.460;19.034;2023-03-23T08:14:38;24.02;;;14.93;;
41799;SDS011;27468;47.460;19.034;2023-03-23T08:17:05;24.92;;;14.18;;
41799;SDS011;27468;47.460;19.034;2023-03-23T08:19:30;22.67;;;13.40;;
41799;SDS011;27468;47.460;19.034;2023-03-23T08:22:01;23.17;;;13.85;;
41799;SDS011;27468;47.460;19.034;2023-03-23T08:24:30;23.00;;;13.90;;
41799;SDS011;27468;47.460;19.034;2023-03-23T08:26:57;23.48;;;13.93;;
41799;SDS011;27468;47.460;19.034;2023-03-23T08:29:23;23.90;;;13.77;;
41799;SDS011;27468;47.460;19.034;2023-03-23T08:31:49;21.13;;;13.52;;
41799;SDS011;27468;47.460;19.034;2023-03-23T08:34:15;20.73;;;12.57;;
41799;SDS011;27468;47.460;19.034;2023-03-23T08:36:40;20.98;;;12.52;;
41799;SDS011;27468;47.460;19.034;2023-03-23T08:39:09;20.13;;;12.13;;
41799;SDS011;27468;47.460;19.034;2023-03-23T08:41:35;21.50;;;12.98;;
41799;SDS011;27468;47.460;19.034;2023-03-23T08:44:00;18.48;;;13.15;;
41799;SDS011;27468;47.460;19.034;2023-03-23T08:46:26;21.77;;;12.80;;
41799;SDS011;27468;47.460;19.034;2023-03-23T08:48:52;21.92;;;13.02;;
41799;SDS011;27468;47.460;19.034;2023-03-23T08:51:19;21.00;;;13.07;;
41799;SDS011;27468;47.460;19.034;2023-03-23T08:53:44;24.15;;;13.95;;
41799;SDS011;27468;47.460;19.034;2023-03-23T08:56:10;21.65;;;12.65;;
41799;SDS011;27468;47.460;19.034;2023-03-23T08:58:37;19.45;;;13.10;;
41799;SDS011;27468;47.460;19.034;2023-03-23T09:01:04;18.58;;;12.75;;
41799;SDS011;27468;47.460;19.034;2023-03-23T09:03:31;19.65;;;12.60;;
41799;SDS011;27468;47.460;19.034;2023-03-23T09:05:58;21.33;;;12.48;;
41799;SDS011;27468;47.460;19.034;2023-03-23T09:08:25;18.80;;;11.73;;
41799;SDS011;27468;47.460;19.034;2023-03-23T09:10:53;19.65;;;11.85;;
41799;SDS011;27468;47.460;19.034;2023-03-23T09:13:20;17.15;;;10.77;;
41799;SDS011;27468;47.460;19.034;2023-03-23T09:15:46;17.13;;;11.10;;
41799;SDS011;27468;47.460;19.034;2023-03-23T09:18:11;21.83;;;11.80;;
41799;SDS011;27468;47.460;19.034;2023-03-23T09:20:37;15.90;;;11.10;;
41799;SDS011;27468;47.460;19.034;2023-03-23T09:23:02;21.85;;;11.23;;
41799;SDS011;27468;47.460;19.034;2023-03-23T09:25:29;17.27;;;11.57;;
41799;SDS011;27468;47.460;19.034;2023-03-23T09:27:55;17.42;;;11.38;;
41799;SDS011;27468;47.460;19.034;2023-03-23T09:30:26;19.65;;;10.55;;
41799;SDS011;27468;47.460;19.034;2023-03-23T09:32:53;14.07;;;9.02;;
41799;SDS011;27468;47.460;19.034;2023-03-23T09:35:19;16.17;;;10.48;;
41799;SDS011;27468;47.460;19.034;2023-03-23T09:37:47;15.50;;;10.07;;
41799;SDS011;27468;47.460;19.034;2023-03-23T09:40:14;16.48;;;10.32;;
41799;SDS011;27468;47.460;19.034;2023-03-23T09:43:11;17.48;;;10.23;;
41799;SDS011;27468;47.460;19.034;2023-03-23T09:48:54;15.38;;;9.57;;
41799;SDS011;27468;47.460;19.034;2023-03-23T09:53:51;16.13;;;9.70;;
41799;SDS011;27468;47.460;19.034;2023-03-23T09:56:21;18.08;;;9.77;;
41799;SDS011;27468;47.460;19.034;2023-03-23T09:59:02;13.98;;;8.77;;
41799;SDS011;27468;47.460;19.034;2023-03-23T10:01:45;15.35;;;9.10;;
41799;SDS011;27468;47.460;19.034;2023-03-23T10:06:51;16.08;;;8.40;;
41799;SDS011;27468;47.460;19.034;2023-03-23T10:09:21;13.25;;;9.05;;
41799;SDS011;27468;47.460;19.034;2023-03-23T10:19:47;10.27;;;7.10;;
41799;SDS011;27468;47.460;19.034;2023-03-23T10:22:35;11.07;;;6.80;;
41799;SDS011;27468;47.460;19.034;2023-03-23T10:30:42;13.07;;;7.95;;
41799;SDS011;27468;47.460;19.034;2023-03-23T10:33:45;10.95;;;7.45;;
41799;SDS011;27468;47.460;19.034;2023-03-23T10:36:31;11.15;;;6.80;;
41799;SDS011;27468;47.460;19.034;2023-03-23T10:39:19;10.18;;;6.40;;
41799;SDS011;27468;47.460;19.034;2023-03-23T10:41:46;8.68;;;6.15;;
41799;SDS011;27468;47.460;19.034;2023-03-23T10:44:23;8.63;;;6.00;;
41799;SDS011;27468;47.460;19.034;2023-03-23T10:46:59;9.02;;;6.25;;
41799;SDS011;27468;47.460;19.034;2023-03-23T10:49:38;9.57;;;6.45;;
41799;SDS011;27468;47.460;19.034;2023-03-23T10:52:19;7.63;;;5.28;;
41799;SDS011;27468;47.460;19.034;2023-03-23T10:57:29;7.57;;;4.90;;
41799;SDS011;27468;47.460;19.034;2023-03-23T11:00:00;8.73;;;4.97;;
41799;SDS011;27468;47.460;19.034;2023-03-23T11:02:35;5.30;;;3.60;;
41799;SDS011;27468;47.460;19.034;2023-03-23T11:05:21;5.35;;;4.43;;
41799;SDS011;27468;47.460;19.034;2023-03-23T11:07:55;5.10;;;3.58;;
41799;SDS011;27468;47.460;19.034;2023-03-23T11:10:42;4.45;;;3.17;;
41799;SDS011;27468;47.460;19.034;2023-03-23T11:13:16;4.22;;;2.92;;
41799;SDS011;27468;47.460;19.034;2023-03-23T11:15:43;3.83;;;2.90;;
41799;SDS011;27468;47.460;19.034;2023-03-23T11:18:12;5.40;;;3.30;;
41799;SDS011;27468;47.460;19.034;2023-03-23T11:20:44;5.53;;;3.20;;
41799;SDS011;27468;47.460;19.034;2023-03-23T11:23:34;6.13;;;3.15;;
41799;SDS011;27468;47.460;19.034;2023-03-23T11:26:09;6.65;;;3.70;;
41799;SDS011;27468;47.460;19.034;2023-03-23T11:28:44;4.95;;;3.33;;
41799;SDS011;27468;47.460;19.034;2023-03-23T11:31:14;7.00;;;3.53;;
41799;SDS011;27468;47.460;19.034;2023-03-23T11:33:50;5.32;;;3.72;;
41799;SDS011;27468;47.460;19.034;2023-03-23T11:36:19;5.55;;;3.90;;
41799;SDS011;27468;47.460;19.034;2023-03-23T11:38:45;4.80;;;3.70;;
41799;SDS011;27468;47.460;19.034;2023-03-23T11:41:12;5.40;;;4.07;;
41799;SDS011;27468;47.460;19.034;2023-03-23T11:43:44;5.90;;;3.75;;
41799;SDS011;27468;47.460;19.034;2023-03-23T11:51:22;6.45;;;3.90;;
41799;SDS011;27468;47.460;19.034;2023-03-23T11:56:38;6.25;;;3.80;;
41799;SDS011;27468;47.460;19.034;2023-03-23T11:59:39;6.43;;;4.13;;
41799;SDS011;27468;47.460;19.034;2023-03-23T12:05:06;5.15;;;3.35;;
41799;SDS011;27468;47.460;19.034;2023-03-23T12:07:52;6.00;;;3.80;;
41799;SDS011;27468;47.460;19.034;2023-03-23T12:10:32;6.47;;;3.70;;
41799;SDS011;27468;47.460;19.034;2023-03-23T12:13:24;3.70;;;3.00;;
41799;SDS011;27468;47.460;19.034;2023-03-23T12:18:51;4.43;;;2.90;;
41799;SDS011;27468;47.460;19.034;2023-03-23T12:21:38;7.78;;;3.00;;
41799;SDS011;27468;47.460;19.034;2023-03-23T12:26:53;6.07;;;2.75;;
41799;SDS011;27468;47.460;19.034;2023-03-23T12:43:01;3.28;;;2.28;;
41799;SDS011;27468;47.460;19.034;2023-03-23T12:48:40;3.13;;;2.45;;
41799;SDS011;27468;47.460;19.034;2023-03-23T12:53:46;4.45;;;2.53;;
41799;SDS011;27468;47.460;19.034;2023-03-23T12:56:48;3.10;;;2.40;;
41799;SDS011;27468;47.460;19.034;2023-03-23T12:59:32;3.22;;;2.20;;
41799;SDS011;27468;47.460;19.034;2023-03-23T13:02:10;3.13;;;2.45;;
41799;SDS011;27468;47.460;19.034;2023-03-23T13:04:38;2.85;;;2.40;;
41799;SDS011;27468;47.460;19.034;2023-03-23T13:07:11;3.78;;;2.35;;
41799;SDS011;27468;47.460;19.034;2023-03-23T13:12:29;4.20;;;2.05;;
41799;SDS011;27468;47.460;19.034;2023-03-23T13:26:17;4.60;;;2.90;;
41799;SDS011;27468;47.460;19.034;2023-03-23T13:31:29;3.30;;;2.58;;
41799;SDS011;27468;47.460;19.034;2023-03-23T13:39:17;3.85;;;3.08;;
41799;SDS011;27468;47.460;19.034;2023-03-23T13:41:49;4.57;;;2.72;;
41799;SDS011;27468;47.460;19.034;2023-03-23T13:44:54;4.78;;;2.88;;
41799;SDS011;27468;47.460;19.034;2023-03-23T13:49:55;4.65;;;2.80;;
41799;SDS011;27468;47.460;19.034;2023-03-23T13:52:35;4.50;;;3.20;;
41799;SDS011;27468;47.460;19.034;2023-03-23T14:00:33;5.05;;;2.78;;
41799;SDS011;27468;47.460;19.034;2023-03-23T14:05:39;3.75;;;2.60;;
41799;SDS011;27468;47.460;19.034;2023-03-23T14:10:58;3.38;;;2.55;;
41799;SDS011;27468;47.460;19.034;2023-03-23T14:16:01;4.55;;;2.60;;
41799;SDS011;27468;47.460;19.034;2023-03-23T14:18:40;4.50;;;2.72;;
41799;SDS011;27468;47.460;19.034;2023-03-23T14:21:15;3.40;;;2.30;;
41799;SDS011;27468;47.460;19.034;2023-03-23T14:23:42;4.03;;;2.38;;
41799;SDS011;27468;47.460;19.034;2023-03-23T14:26:11;3.58;;;2.42;;
41799;SDS011;27468;47.460;19.034;2023-03-23T14:28:42;4.38;;;2.47;;
41799;SDS011;27468;47.460;19.034;2023-03-23T14:33:44;4.15;;;2.55;;
41799;SDS011;27468;47.460;19.034;2023-03-23T14:36:09;5.82;;;3.00;;
41799;SDS011;27468;47.460;19.034;2023-03-23T14:38:35;6.43;;;3.65;;
41799;SDS011;27468;47.460;19.034;2023-03-23T14:41:02;3.92;;;2.97;;
41799;SDS011;27468;47.460;19.034;2023-03-23T14:43:29;4.70;;;2.70;;
41799;SDS011;27468;47.460;19.034;2023-03-23T14:45:57;4.97;;;3.03;;
41799;SDS011;27468;47.460;19.034;2023-03-23T14:48:24;5.38;;;3.38;;
41799;SDS011;27468;47.460;19.034;2023-03-23T14:50:52;4.65;;;3.22;;
41799;SDS011;27468;47.460;19.034;2023-03-23T14:53:24;4.20;;;2.90;;
41799;SDS011;27468;47.460;19.034;2023-03-23T14:55:54;5.88;;;3.10;;
41799;SDS011;27468;47.460;19.034;2023-03-23T14:58:22;4.95;;;2.75;;
41799;SDS011;27468;47.460;19.034;2023-03-23T15:01:10;4.15;;;2.80;;
41799;SDS011;27468;47.460;19.034;2023-03-23T15:03:40;3.25;;;2.95;;
41799;SDS011;27468;47.460;19.034;2023-03-23T15:06:15;6.30;;;3.20;;
41799;SDS011;27468;47.460;19.034;2023-03-23T15:08:42;4.43;;;2.85;;
41799;SDS011;27468;47.460;19.034;2023-03-23T15:13:45;4.32;;;2.70;;
41799;SDS011;27468;47.460;19.034;2023-03-23T15:18:46;2.70;;;2.50;;
41799;SDS011;27468;47.460;19.034;2023-03-23T15:21:29;3.40;;;2.60;;
41799;SDS011;27468;47.460;19.034;2023-03-23T15:23:56;4.38;;;2.63;;
41799;SDS011;27468;47.460;19.034;2023-03-23T15:29:05;5.18;;;2.97;;
41799;SDS011;27468;47.460;19.034;2023-03-23T15:31:55;5.65;;;3.42;;
41799;SDS011;27468;47.460;19.034;2023-03-23T15:34:41;4.13;;;3.00;;
41799;SDS011;27468;47.460;19.034;2023-03-23T15:37:17;5.22;;;3.45;;
41799;SDS011;27468;47.460;19.034;2023-03-23T15:39:45;5.85;;;3.30;;
41799;SDS011;27468;47.460;19.034;2023-03-23T15:42:22;3.40;;;2.50;;
41799;SDS011;27468;47.460;19.034;2023-03-23T15:50:13;3.90;;;2.70;;
41799;SDS011;27468;47.460;19.034;2023-03-23T15:52:39;5.65;;;2.80;;
41799;SDS011;27468;47.460;19.034;2023-03-23T15:57:51;5.65;;;2.90;;
41799;SDS011;27468;47.460;19.034;2023-03-23T16:00:18;6.10;;;2.85;;
41799;SDS011;27468;47.460;19.034;2023-03-23T16:02:53;6.80;;;2.90;;
41799;SDS011;27468;47.460;19.034;2023-03-23T16:05:21;6.10;;;2.70;;
41799;SDS011;27468;47.460;19.034;2023-03-23T16:07:47;3.47;;;2.70;;
41799;SDS011;27468;47.460;19.034;2023-03-23T16:10:15;4.38;;;2.75;;
41799;SDS011;27468;47.460;19.034;2023-03-23T16:12:42;5.03;;;2.60;;
41799;SDS011;27468;47.460;19.034;2023-03-23T16:15:08;6.25;;;2.70;;
41799;SDS011;27468;47.460;19.034;2023-03-23T16:17:35;4.32;;;2.70;;
41799;SDS011;27468;47.460;19.034;2023-03-23T16:20:00;5.72;;;2.60;;
41799;SDS011;27468;47.460;19.034;2023-03-23T16:22:28;7.78;;;2.80;;
41799;SDS011;27468;47.460;19.034;2023-03-23T16:24:53;5.57;;;2.63;;
41799;SDS011;27468;47.460;19.034;2023-03-23T16:27:18;4.45;;;2.40;;
41799;SDS011;27468;47.460;19.034;2023-03-23T16:29:45;4.35;;;2.70;;
41799;SDS011;27468;47.460;19.034;2023-03-23T16:32:11;3.20;;;2.50;;
41799;SDS011;27468;47.460;19.034;2023-03-23T16:34:36;6.07;;;2.70;;
41799;SDS011;27468;47.460;19.034;2023-03-23T16:37:02;4.32;;;2.50;;
41799;SDS011;27468;47.460;19.034;2023-03-23T16:39:28;5.32;;;2.70;;
41799;SDS011;27468;47.460;19.034;2023-03-23T16:41:53;5.93;;;2.60;;
41799;SDS011;27468;47.460;19.034;2023-03-23T16:44:19;4.50;;;2.60;;
41799;SDS011;27468;47.460;19.034;2023-03-23T16:46:44;5.20;;;2.58;;
41799;SDS011;27468;47.460;19.034;2023-03-23T16:49:10;4.32;;;2.55;;